Time,TemperatureF,DewpointF,PressureIn,WindDirection,WindDirectionDegrees,WindSpeedMPH,WindSpeedGustMPH,Humidity,HourlyPrecipIn,Conditions,Clouds,dailyrainin,SoftwareType,DateUTC
2013-06-23 00:00:00,78.0,78.0,30.17,South,170,20.0,22.0,100,-99.99,,,-99.99,,2013-06-23 04:00:00,
2013-06-23 00:31:00,78.0,78.0,30.17,South,170,20.0,22.0,100,-99.99,,,-99.99,,2013-06-23 04:31:00,
2013-06-23 00:42:00,78.0,78.0,30.17,South,170,20.0,22.0,100,-99.99,,,-99.99,,2013-06-23 04:42:00,
2013-06-23 00:51:00,78.0,78.0,30.17,South,170,20.0,22.0,100,-99.99,,,-99.99,,2013-06-23 04:51:00,
2013-06-23 02:00:00,77.0,77.0,30.17,South,190,9.0,10.0,100,-99.99,,,-99.99,,2013-06-23 06:00:00,
2013-06-23 02:32:00,77.0,77.0,30.17,South,190,9.0,10.0,100,-99.99,,,-99.99,,2013-06-23 06:32:00,
2013-06-23 02:43:00,77.0,77.0,30.17,South,190,9.0,10.0,100,-99.99,,,-99.99,,2013-06-23 06:43:00,
2013-06-23 02:52:00,77.0,77.0,30.17,South,190,9.0,10.0,100,-99.99,,,-99.99,,2013-06-23 06:52:00,
2013-06-23 03:00:00,77.0,77.0,30.17,South,180,6.0,6.0,100,-99.99,,,-99.99,,2013-06-23 07:00:00,
2013-06-23 03:33:00,77.0,77.0,30.17,South,180,6.0,6.0,100,-99.99,,,-99.99,,2013-06-23 07:33:00,
2013-06-23 03:42:00,77.0,77.0,30.17,South,180,6.0,6.0,100,-99.99,,,-99.99,,2013-06-23 07:42:00,
2013-06-23 03:53:00,77.0,77.0,30.17,South,180,6.0,6.0,100,-99.99,,,-99.99,,2013-06-23 07:53:00,
2013-06-23 04:00:00,76.0,76.0,30.17,South,190,3.0,5.0,100,-99.99,,,-99.99,,2013-06-23 08:00:00,
2013-06-23 04:33:00,76.0,76.0,30.17,South,190,3.0,5.0,100,-99.99,,,-99.99,,2013-06-23 08:33:00,
2013-06-23 04:42:00,76.0,76.0,30.17,South,190,3.0,5.0,100,-99.99,,,-99.99,,2013-06-23 08:42:00,
2013-06-23 04:53:00,76.0,76.0,30.17,South,190,3.0,5.0,100,-99.99,,,-99.99,,2013-06-23 08:53:00,
2013-06-23 05:00:00,76.0,76.0,30.18,SSW,210,5.0,6.0,100,-99.99,,,-99.99,,2013-06-23 09:00:00,
2013-06-23 05:34:00,76.0,76.0,30.18,SSW,210,5.0,6.0,100,-99.99,,,-99.99,,2013-06-23 09:34:00,
2013-06-23 05:43:00,76.0,76.0,30.18,SSW,210,5.0,6.0,100,-99.99,,,-99.99,,2013-06-23 09:43:00,
2013-06-23 05:53:00,76.0,76.0,30.18,SSW,210,5.0,6.0,100,-99.99,,,-99.99,,2013-06-23 09:53:00,
2013-06-23 06:00:00,76.0,76.0,30.19,SW,220,3.0,5.0,100,-99.99,,,-99.99,,2013-06-23 10:00:00,
2013-06-23 06:34:00,76.0,76.0,30.19,SW,220,3.0,5.0,100,-99.99,,,-99.99,,2013-06-23 10:34:00,
2013-06-23 06:43:00,76.0,76.0,30.19,SW,220,3.0,5.0,100,-99.99,,,-99.99,,2013-06-23 10:43:00,
2013-06-23 06:52:00,76.0,76.0,30.19,SW,220,3.0,5.0,100,-99.99,,,-99.99,,2013-06-23 10:52:00,
2013-06-23 07:00:00,76.0,76.0,30.20,SE,130,9.0,10.0,100,-99.99,,,-99.99,,2013-06-23 11:00:00,
2013-06-23 07:33:00,76.0,76.0,30.20,SE,130,9.0,10.0,100,-99.99,,,-99.99,,2013-06-23 11:33:00,
2013-06-23 07:43:00,76.0,76.0,30.20,SE,130,9.0,10.0,100,-99.99,,,-99.99,,2013-06-23 11:43:00,
2013-06-23 07:53:00,76.0,76.0,30.20,SE,130,9.0,10.0,100,-99.99,,,-99.99,,2013-06-23 11:53:00,
2013-06-23 09:00:00,77.0,77.0,30.22,SSE,150,3.0,6.0,100,-99.99,,,-99.99,,2013-06-23 13:00:00,
2013-06-23 09:33:00,77.0,77.0,30.22,SSE,150,3.0,6.0,100,-99.99,,,-99.99,,2013-06-23 13:33:00,
2013-06-23 09:43:00,77.0,77.0,30.22,SSE,150,3.0,6.0,100,-99.99,,,-99.99,,2013-06-23 13:43:00,
2013-06-23 09:53:00,77.0,77.0,30.22,SSE,150,3.0,6.0,100,-99.99,,,-99.99,,2013-06-23 13:53:00,
2013-06-23 10:00:00,77.0,77.0,30.23,SSE,160,7.0,7.0,100,-99.99,,,-99.99,,2013-06-23 14:00:00,
2013-06-23 10:33:00,77.0,77.0,30.23,SSE,160,7.0,7.0,100,-99.99,,,-99.99,,2013-06-23 14:33:00,
2013-06-23 10:44:00,77.0,77.0,30.23,SSE,160,7.0,7.0,100,-99.99,,,-99.99,,2013-06-23 14:44:00,
2013-06-23 10:52:00,77.0,77.0,30.23,SSE,160,7.0,7.0,100,-99.99,,,-99.99,,2013-06-23 14:52:00,
2013-06-23 11:34:00,77.0,77.0,30.24,South,180,6.0,7.0,100,-99.99,,,-99.99,,2013-06-23 15:34:00,
2013-06-23 11:43:00,77.0,77.0,30.24,South,180,6.0,7.0,100,-99.99,,,-99.99,,2013-06-23 15:43:00,
2013-06-23 11:52:00,77.0,77.0,30.24,South,180,6.0,7.0,100,-99.99,,,-99.99,,2013-06-23 15:52:00,
2013-06-23 12:00:00,75.0,75.0,30.24,South,180,10.0,13.0,100,-99.99,,,-99.99,,2013-06-23 16:00:00,
2013-06-23 12:34:00,75.0,75.0,30.24,South,180,10.0,13.0,100,-99.99,,,-99.99,,2013-06-23 16:34:00,
2013-06-23 12:42:00,75.0,75.0,30.24,South,180,10.0,13.0,100,-99.99,,,-99.99,,2013-06-23 16:42:00,
2013-06-23 12:52:00,75.0,75.0,30.24,South,180,10.0,13.0,100,-99.99,,,-99.99,,2013-06-23 16:52:00,
2013-06-23 13:00:00,76.0,76.0,30.23,South,170,7.0,8.0,100,-99.99,,,-99.99,,2013-06-23 17:00:00,
2013-06-23 13:33:00,76.0,76.0,30.23,South,170,7.0,8.0,100,-99.99,,,-99.99,,2013-06-23 17:33:00,
2013-06-23 13:43:00,76.0,76.0,30.23,South,170,7.0,8.0,100,-99.99,,,-99.99,,2013-06-23 17:43:00,
2013-06-23 13:52:00,76.0,76.0,30.23,South,170,7.0,8.0,100,-99.99,,,-99.99,,2013-06-23 17:52:00,
2013-06-23 15:00:00,75.0,75.0,30.22,SSE,150,14.0,15.0,100,-99.99,,,-99.99,,2013-06-23 19:00:00,
2013-06-23 15:32:00,75.0,75.0,30.22,SSE,150,14.0,15.0,100,-99.99,,,-99.99,,2013-06-23 19:32:00,
2013-06-23 15:43:00,75.0,75.0,30.22,SSE,150,14.0,15.0,100,-99.99,,,-99.99,,2013-06-23 19:43:00,
2013-06-23 15:53:00,75.0,75.0,30.22,SSE,150,14.0,15.0,100,-99.99,,,-99.99,,2013-06-23 19:53:00,
2013-06-23 16:00:00,76.0,76.0,30.20,SE,140,14.0,15.0,100,-99.99,,,-99.99,,2013-06-23 20:00:00,
2013-06-23 16:33:00,76.0,76.0,30.20,SE,140,14.0,15.0,100,-99.99,,,-99.99,,2013-06-23 20:33:00,
2013-06-23 16:42:00,76.0,76.0,30.20,SE,140,14.0,15.0,100,-99.99,,,-99.99,,2013-06-23 20:42:00,
2013-06-23 16:52:00,76.0,76.0,30.20,SE,140,14.0,15.0,100,-99.99,,,-99.99,,2013-06-23 20:52:00,
2013-06-23 18:00:00,77.0,77.0,30.21,SSE,160,12.0,13.0,100,-99.99,,,-99.99,,2013-06-23 22:00:00,
2013-06-23 18:32:00,77.0,77.0,30.21,SSE,160,12.0,13.0,100,-99.99,,,-99.99,,2013-06-23 22:32:00,
2013-06-23 18:43:00,77.0,77.0,30.21,SSE,160,12.0,13.0,100,-99.99,,,-99.99,,2013-06-23 22:43:00,
2013-06-23 18:53:00,77.0,77.0,30.21,SSE,160,12.0,13.0,100,-99.99,,,-99.99,,2013-06-23 22:53:00,
2013-06-23 19:00:00,77.0,77.0,30.20,SSE,150,10.0,10.0,100,-99.99,,,-99.99,,2013-06-23 23:00:00,
2013-06-23 19:33:00,77.0,77.0,30.20,SSE,150,10.0,10.0,100,-99.99,,,-99.99,,2013-06-23 23:33:00,
2013-06-23 19:44:00,77.0,77.0,30.20,SSE,150,10.0,10.0,100,-99.99,,,-99.99,,2013-06-23 23:44:00,
2013-06-23 19:52:00,77.0,77.0,30.20,SSE,150,10.0,10.0,100,-99.99,,,-99.99,,2013-06-23 23:52:00,
2013-06-23 20:00:00,78.0,78.0,30.20,South,170,12.0,13.0,100,-99.99,,,-99.99,,2013-06-24 00:00:00,
2013-06-23 20:33:00,78.0,78.0,30.20,South,170,12.0,13.0,100,-99.99,,,-99.99,,2013-06-24 00:33:00,
2013-06-23 20:42:00,78.0,78.0,30.20,South,170,12.0,13.0,100,-99.99,,,-99.99,,2013-06-24 00:42:00,
2013-06-23 20:52:00,78.0,78.0,30.20,South,170,12.0,13.0,100,-99.99,,,-99.99,,2013-06-24 00:52:00,
2013-06-23 21:00:00,78.0,78.0,30.18,South,180,17.0,20.0,100,-99.99,,,-99.99,,2013-06-24 01:00:00,
2013-06-23 21:32:00,78.0,78.0,30.18,South,180,17.0,20.0,100,-99.99,,,-99.99,,2013-06-24 01:32:00,
2013-06-23 21:42:00,78.0,78.0,30.18,South,180,17.0,20.0,100,-99.99,,,-99.99,,2013-06-24 01:42:00,
2013-06-23 21:52:00,78.0,78.0,30.18,South,180,17.0,20.0,100,-99.99,,,-99.99,,2013-06-24 01:52:00,
2013-06-23 22:00:00,78.0,78.0,30.21,SSW,200,13.0,15.0,100,-99.99,,,-99.99,,2013-06-24 02:00:00,
2013-06-23 22:33:00,78.0,78.0,30.21,SSW,200,13.0,15.0,100,-99.99,,,-99.99,,2013-06-24 02:33:00,
2013-06-23 22:42:00,78.0,78.0,30.21,SSW,200,13.0,15.0,100,-99.99,,,-99.99,,2013-06-24 02:42:00,
2013-06-23 22:52:00,78.0,78.0,30.21,SSW,200,13.0,15.0,100,-99.99,,,-99.99,,2013-06-24 02:52:00,
2013-06-23 23:00:00,77.0,77.0,30.20,SSW,210,13.0,16.0,100,-99.99,,,-99.99,,2013-06-24 03:00:00,
2013-06-23 23:42:00,77.0,77.0,30.20,SSW,210,13.0,16.0,100,-99.99,,,-99.99,,2013-06-24 03:42:00,
2013-06-23 23:53:00,77.0,77.0,30.20,SSW,210,13.0,16.0,100,-99.99,,,-99.99,,2013-06-24 03:53:00,